sensor_id;sensor_type;location;lat;lon;timestamp;P1;durP1;ratioP1;P2;durP2;ratioP2
1382;SDS011;685;47.196;11.880;2023-05-16T00:01:15;2.83;;;2.50;;
1382;SDS011;685;47.196;11.880;2023-05-16T00:03:42;3.97;;;2.60;;
1382;SDS011;685;47.196;11.880;2023-05-16T00:06:10;3.00;;;2.33;;
1382;SDS011;685;47.196;11.880;2023-05-16T00:08:37;4.17;;;2.83;;
1382;SDS011;685;47.196;11.880;2023-05-16T00:11:05;2.60;;;2.37;;
1382;SDS011;685;47.196;11.880;2023-05-16T00:13:32;3.03;;;2.73;;
1382;SDS011;685;47.196;11.880;2023-05-16T00:15:59;3.70;;;3.40;;
1382;SDS011;685;47.196;11.880;2023-05-16T00:18:26;4.73;;;3.27;;
1382;SDS011;685;47.196;11.880;2023-05-16T00:20:53;4.20;;;3.80;;
1382;SDS011;685;47.196;11.880;2023-05-16T00:23:22;3.83;;;3.53;;
1382;SDS011;685;47.196;11.880;2023-05-16T00:25:49;3.80;;;3.10;;
1382;SDS011;685;47.196;11.880;2023-05-16T00:28:16;6.73;;;3.60;;
1382;SDS011;685;47.196;11.880;2023-05-16T00:30:43;3.90;;;3.50;;
1382;SDS011;685;47.196;11.880;2023-05-16T00:33:10;4.43;;;3.50;;
1382;SDS011;685;47.196;11.880;2023-05-16T00:35:37;4.40;;;2.97;;
1382;SDS011;685;47.196;11.880;2023-05-16T00:38:04;4.40;;;2.80;;
1382;SDS011;685;47.196;11.880;2023-05-16T00:40:32;5.53;;;3.37;;
1382;SDS011;685;47.196;11.880;2023-05-16T00:42:59;3.87;;;2.60;;
1382;SDS011;685;47.196;11.880;2023-05-16T00:45:26;4.50;;;2.90;;
1382;SDS011;685;47.196;11.880;2023-05-16T00:47:53;2.70;;;2.50;;
1382;SDS011;685;47.196;11.880;2023-05-16T00:50:20;3.13;;;2.83;;
1382;SDS011;685;47.196;11.880;2023-05-16T00:52:47;3.27;;;2.80;;
1382;SDS011;685;47.196;11.880;2023-05-16T00:55:14;3.10;;;2.70;;
1382;SDS011;685;47.196;11.880;2023-05-16T00:57:43;3.27;;;2.97;;
1382;SDS011;685;47.196;11.880;2023-05-16T01:00:10;3.50;;;3.17;;
1382;SDS011;685;47.196;11.880;2023-05-16T01:02:39;3.50;;;2.60;;
1382;SDS011;685;47.196;11.880;2023-05-16T01:05:07;3.80;;;3.33;;
1382;SDS011;685;47.196;11.880;2023-05-16T01:07:34;3.47;;;3.13;;
1382;SDS011;685;47.196;11.880;2023-05-16T01:10:01;3.97;;;3.07;;
1382;SDS011;685;47.196;11.880;2023-05-16T01:12:32;4.73;;;2.80;;
1382;SDS011;685;47.196;11.880;2023-05-16T01:15:08;3.90;;;3.50;;
1382;SDS011;685;47.196;11.880;2023-05-16T01:17:42;4.37;;;3.80;;
1382;SDS011;685;47.196;11.880;2023-05-16T01:20:21;2.97;;;2.70;;
1382;SDS011;685;47.196;11.880;2023-05-16T01:23:00;3.80;;;3.33;;
1382;SDS011;685;47.196;11.880;2023-05-16T01:25:37;5.40;;;3.30;;
1382;SDS011;685;47.196;11.880;2023-05-16T01:28:22;6.03;;;3.10;;
1382;SDS011;685;47.196;11.880;2023-05-16T01:30:50;3.47;;;3.17;;
1382;SDS011;685;47.196;11.880;2023-05-16T01:33:17;4.03;;;2.97;;
1382;SDS011;685;47.196;11.880;2023-05-16T01:35:46;3.77;;;3.23;;
1382;SDS011;685;47.196;11.880;2023-05-16T01:38:29;4.40;;;4.00;;
1382;SDS011;685;47.196;11.880;2023-05-16T01:41:03;3.63;;;3.17;;
1382;SDS011;685;47.196;11.880;2023-05-16T01:43:41;4.10;;;3.70;;
1382;SDS011;685;47.196;11.880;2023-05-16T01:46:10;3.90;;;3.00;;
1382;SDS011;685;47.196;11.880;2023-05-16T01:48:42;4.03;;;3.47;;
1382;SDS011;685;47.196;11.880;2023-05-16T01:51:16;4.20;;;3.37;;
1382;SDS011;685;47.196;11.880;2023-05-16T01:53:46;3.67;;;3.37;;
1382;SDS011;685;47.196;11.880;2023-05-16T01:56:15;5.10;;;3.47;;
1382;SDS011;685;47.196;11.880;2023-05-16T01:58:44;6.17;;;3.33;;
1382;SDS011;685;47.196;11.880;2023-05-16T02:01:13;4.03;;;3.10;;
1382;SDS011;685;47.196;11.880;2023-05-16T02:03:40;4.17;;;3.77;;
1382;SDS011;685;47.196;11.880;2023-05-16T02:06:07;3.77;;;3.37;;
1382;SDS011;685;47.196;11.880;2023-05-16T02:08:34;3.93;;;2.53;;
1382;SDS011;685;47.196;11.880;2023-05-16T02:11:00;4.37;;;3.30;;
1382;SDS011;685;47.196;11.880;2023-05-16T02:13:27;6.00;;;3.70;;
1382;SDS011;685;47.196;11.880;2023-05-16T02:15:56;3.23;;;2.80;;
1382;SDS011;685;47.196;11.880;2023-05-16T02:18:23;3.27;;;2.80;;
1382;SDS011;685;47.196;11.880;2023-05-16T02:20:50;4.20;;;2.60;;
1382;SDS011;685;47.196;11.880;2023-05-16T02:23:17;4.20;;;3.80;;
1382;SDS011;685;47.196;11.880;2023-05-16T02:25:44;4.33;;;3.43;;
1382;SDS011;685;47.196;11.880;2023-05-16T02:28:11;3.63;;;3.33;;
1382;SDS011;685;47.196;11.880;2023-05-16T02:30:38;6.43;;;2.60;;
1382;SDS011;685;47.196;11.880;2023-05-16T02:33:06;3.63;;;3.33;;
1382;SDS011;685;47.196;11.880;2023-05-16T02:35:33;4.10;;;3.40;;
1382;SDS011;685;47.196;11.880;2023-05-16T02:38:00;3.80;;;3.50;;
1382;SDS011;685;47.196;11.880;2023-05-16T02:40:27;3.53;;;3.23;;
1382;SDS011;685;47.196;11.880;2023-05-16T02:42:54;4.47;;;3.20;;
1382;SDS011;685;47.196;11.880;2023-05-16T02:45:21;3.80;;;3.17;;
1382;SDS011;685;47.196;11.880;2023-05-16T02:47:48;7.20;;;5.00;;
1382;SDS011;685;47.196;11.880;2023-05-16T02:50:16;4.13;;;3.73;;
1382;SDS011;685;47.196;11.880;2023-05-16T02:52:43;5.50;;;3.90;;
1382;SDS011;685;47.196;11.880;2023-05-16T02:55:11;5.43;;;3.70;;
1382;SDS011;685;47.196;11.880;2023-05-16T02:57:38;4.10;;;3.70;;
1382;SDS011;685;47.196;11.880;2023-05-16T03:00:05;6.43;;;3.60;;
1382;SDS011;685;47.196;11.880;2023-05-16T03:02:35;7.73;;;4.77;;
1382;SDS011;685;47.196;11.880;2023-05-16T03:05:02;4.50;;;3.20;;
1382;SDS011;685;47.196;11.880;2023-05-16T03:07:31;3.43;;;3.03;;
1382;SDS011;685;47.196;11.880;2023-05-16T03:09:58;5.20;;;3.30;;
1382;SDS011;685;47.196;11.880;2023-05-16T03:12:25;9.77;;;8.77;;
1382;SDS011;685;47.196;11.880;2023-05-16T03:14:52;6.83;;;6.13;;
1382;SDS011;685;47.196;11.880;2023-05-16T03:17:19;7.93;;;4.80;;
1382;SDS011;685;47.196;11.880;2023-05-16T03:19:46;3.90;;;3.50;;
1382;SDS011;685;47.196;11.880;2023-05-16T03:22:13;4.20;;;3.80;;
1382;SDS011;685;47.196;11.880;2023-05-16T03:24:41;4.60;;;3.60;;
1382;SDS011;685;47.196;11.880;2023-05-16T03:27:08;4.13;;;3.27;;
1382;SDS011;685;47.196;11.880;2023-05-16T03:29:36;4.03;;;3.63;;
1382;SDS011;685;47.196;11.880;2023-05-16T03:32:03;4.60;;;4.20;;
1382;SDS011;685;47.196;11.880;2023-05-16T03:34:30;5.00;;;4.27;;
1382;SDS011;685;47.196;11.880;2023-05-16T03:36:57;4.50;;;4.10;;
1382;SDS011;685;47.196;11.880;2023-05-16T03:39:24;4.80;;;3.50;;
1382;SDS011;685;47.196;11.880;2023-05-16T03:41:52;4.20;;;3.67;;
1382;SDS011;685;47.196;11.880;2023-05-16T03:44:21;5.37;;;3.80;;
1382;SDS011;685;47.196;11.880;2023-05-16T03:46:48;3.90;;;3.60;;
1382;SDS011;685;47.196;11.880;2023-05-16T03:49:16;5.30;;;3.77;;
1382;SDS011;685;47.196;11.880;2023-05-16T03:51:45;4.80;;;3.80;;
1382;SDS011;685;47.196;11.880;2023-05-16T03:54:12;4.17;;;3.50;;
1382;SDS011;685;47.196;11.880;2023-05-16T03:56:39;6.47;;;3.30;;
1382;SDS011;685;47.196;11.880;2023-05-16T03:59:07;4.43;;;3.80;;
1382;SDS011;685;47.196;11.880;2023-05-16T04:01:34;4.10;;;3.73;;
1382;SDS011;685;47.196;11.880;2023-05-16T04:04:01;3.50;;;3.03;;
1382;SDS011;685;47.196;11.880;2023-05-16T04:06:28;4.40;;;3.63;;
1382;SDS011;685;47.196;11.880;2023-05-16T04:08:56;4.20;;;3.63;;
1382;SDS011;685;47.196;11.880;2023-05-16T04:11:23;4.20;;;3.50;;
1382;SDS011;685;47.196;11.880;2023-05-16T04:13:50;4.60;;;4.20;;
1382;SDS011;685;47.196;11.880;2023-05-16T04:16:19;5.30;;;4.27;;
1382;SDS011;685;47.196;11.880;2023-05-16T04:18:46;6.60;;;4.47;;
1382;SDS011;685;47.196;11.880;2023-05-16T04:21:13;4.80;;;4.10;;
1382;SDS011;685;47.196;11.880;2023-05-16T04:23:40;4.20;;;3.80;;
1382;SDS011;685;47.196;11.880;2023-05-16T04:26:07;5.00;;;3.60;;
1382;SDS011;685;47.196;11.880;2023-05-16T04:28:34;5.87;;;4.70;;
1382;SDS011;685;47.196;11.880;2023-05-16T04:31:01;4.93;;;4.40;;
1382;SDS011;685;47.196;11.880;2023-05-16T04:33:29;4.07;;;3.60;;
1382;SDS011;685;47.196;11.880;2023-05-16T04:35:56;4.03;;;3.63;;
1382;SDS011;685;47.196;11.880;2023-05-16T04:38:24;5.60;;;4.90;;
1382;SDS011;685;47.196;11.880;2023-05-16T04:40:51;5.00;;;4.13;;
1382;SDS011;685;47.196;11.880;2023-05-16T04:43:18;5.23;;;4.50;;
1382;SDS011;685;47.196;11.880;2023-05-16T04:45:45;5.67;;;4.30;;
1382;SDS011;685;47.196;11.880;2023-05-16T04:48:12;5.77;;;4.90;;
1382;SDS011;685;47.196;11.880;2023-05-16T04:50:40;5.97;;;5.37;;
1382;SDS011;685;47.196;11.880;2023-05-16T04:53:07;5.50;;;5.00;;
1382;SDS011;685;47.196;11.880;2023-05-16T04:55:34;5.00;;;4.47;;
1382;SDS011;685;47.196;11.880;2023-05-16T04:58:01;5.37;;;4.87;;
1382;SDS011;685;47.196;11.880;2023-05-16T05:00:28;5.77;;;4.83;;
1382;SDS011;685;47.196;11.880;2023-05-16T05:02:55;6.47;;;5.47;;
1382;SDS011;685;47.196;11.880;2023-05-16T05:05:22;7.33;;;5.00;;
1382;SDS011;685;47.196;11.880;2023-05-16T05:07:50;5.80;;;5.23;;
1382;SDS011;685;47.196;11.880;2023-05-16T05:10:18;6.07;;;4.77;;
1382;SDS011;685;47.196;11.880;2023-05-16T05:12:45;6.07;;;4.97;;
1382;SDS011;685;47.196;11.880;2023-05-16T05:15:12;6.93;;;5.50;;
1382;SDS011;685;47.196;11.880;2023-05-16T05:17:39;7.97;;;6.37;;
1382;SDS011;685;47.196;11.880;2023-05-16T05:20:06;8.30;;;5.47;;
1382;SDS011;685;47.196;11.880;2023-05-16T05:22:34;6.03;;;5.47;;
1382;SDS011;685;47.196;11.880;2023-05-16T05:25:02;7.83;;;6.30;;
1382;SDS011;685;47.196;11.880;2023-05-16T05:27:30;6.60;;;5.83;;
1382;SDS011;685;47.196;11.880;2023-05-16T05:29:57;8.03;;;6.53;;
1382;SDS011;685;47.196;11.880;2023-05-16T05:32:24;7.20;;;6.50;;
1382;SDS011;685;47.196;11.880;2023-05-16T05:34:51;7.30;;;6.47;;
1382;SDS011;685;47.196;11.880;2023-05-16T05:37:18;7.33;;;6.50;;
1382;SDS011;685;47.196;11.880;2023-05-16T05:39:45;8.30;;;7.30;;
1382;SDS011;685;47.196;11.880;2023-05-16T05:42:13;8.33;;;6.47;;
1382;SDS011;685;47.196;11.880;2023-05-16T05:44:40;7.67;;;6.97;;
1382;SDS011;685;47.196;11.880;2023-05-16T05:47:07;7.67;;;6.90;;
1382;SDS011;685;47.196;11.880;2023-05-16T05:49:34;7.17;;;6.40;;
1382;SDS011;685;47.196;11.880;2023-05-16T05:52:01;6.97;;;6.33;;
1382;SDS011;685;47.196;11.880;2023-05-16T05:54:28;6.30;;;5.70;;
1382;SDS011;685;47.196;11.880;2023-05-16T05:56:55;7.60;;;6.80;;
1382;SDS011;685;47.196;11.880;2023-05-16T05:59:24;7.07;;;6.37;;
1382;SDS011;685;47.196;11.880;2023-05-16T06:01:51;7.17;;;6.43;;
1382;SDS011;685;47.196;11.880;2023-05-16T06:04:18;6.60;;;6.00;;
1382;SDS011;685;47.196;11.880;2023-05-16T06:06:45;6.33;;;5.73;;
1382;SDS011;685;47.196;11.880;2023-05-16T06:09:12;6.23;;;5.70;;
1382;SDS011;685;47.196;11.880;2023-05-16T06:11:39;6.03;;;5.53;;
1382;SDS011;685;47.196;11.880;2023-05-16T06:14:07;8.50;;;6.60;;
1382;SDS011;685;47.196;11.880;2023-05-16T06:16:36;13.83;;;11.13;;
1382;SDS011;685;47.196;11.880;2023-05-16T06:19:04;8.40;;;7.10;;
1382;SDS011;685;47.196;11.880;2023-05-16T06:21:31;19.40;;;13.50;;
1382;SDS011;685;47.196;11.880;2023-05-16T06:23:58;9.23;;;7.20;;
1382;SDS011;685;47.196;11.880;2023-05-16T06:26:25;9.90;;;7.77;;
1382;SDS011;685;47.196;11.880;2023-05-16T06:28:52;6.90;;;6.30;;
1382;SDS011;685;47.196;11.880;2023-05-16T06:31:18;6.90;;;6.30;;
1382;SDS011;685;47.196;11.880;2023-05-16T06:33:47;6.57;;;5.97;;
1382;SDS011;685;47.196;11.880;2023-05-16T06:36:14;5.70;;;5.20;;
1382;SDS011;685;47.196;11.880;2023-05-16T06:38:41;7.00;;;6.07;;
1382;SDS011;685;47.196;11.880;2023-05-16T06:41:08;6.20;;;5.70;;
1382;SDS011;685;47.196;11.880;2023-05-16T06:43:35;6.00;;;5.40;;
1382;SDS011;685;47.196;11.880;2023-05-16T06:46:02;6.97;;;6.27;;
1382;SDS011;685;47.196;11.880;2023-05-16T06:48:29;7.47;;;6.77;;
1382;SDS011;685;47.196;11.880;2023-05-16T06:50:57;6.37;;;5.77;;
1382;SDS011;685;47.196;11.880;2023-05-16T06:53:24;6.20;;;5.60;;
1382;SDS011;685;47.196;11.880;2023-05-16T06:55:52;6.73;;;5.70;;
1382;SDS011;685;47.196;11.880;2023-05-16T06:58:19;6.10;;;5.50;;
1382;SDS011;685;47.196;11.880;2023-05-16T07:00:47;5.67;;;5.17;;
1382;SDS011;685;47.196;11.880;2023-05-16T07:03:15;5.50;;;4.90;;
1382;SDS011;685;47.196;11.880;2023-05-16T07:05:42;6.17;;;5.57;;
1382;SDS011;685;47.196;11.880;2023-05-16T07:08:10;7.00;;;6.40;;
1382;SDS011;685;47.196;11.880;2023-05-16T07:10:37;6.10;;;5.00;;
1382;SDS011;685;47.196;11.880;2023-05-16T07:13:04;5.70;;;5.20;;
1382;SDS011;685;47.196;11.880;2023-05-16T07:15:31;6.60;;;6.00;;
1382;SDS011;685;47.196;11.880;2023-05-16T07:17:58;7.87;;;6.17;;
1382;SDS011;685;47.196;11.880;2023-05-16T07:20:25;6.10;;;5.50;;
1382;SDS011;685;47.196;11.880;2023-05-16T07:22:52;6.00;;;4.63;;
1382;SDS011;685;47.196;11.880;2023-05-16T07:25:22;6.20;;;5.60;;
1382;SDS011;685;47.196;11.880;2023-05-16T07:27:50;5.80;;;5.30;;
1382;SDS011;685;47.196;11.880;2023-05-16T07:30:17;6.73;;;5.30;;
1382;SDS011;685;47.196;11.880;2023-05-16T07:32:44;7.20;;;5.83;;
1382;SDS011;685;47.196;11.880;2023-05-16T07:35:11;6.87;;;6.20;;
1382;SDS011;685;47.196;11.880;2023-05-16T07:37:38;8.53;;;6.53;;
1382;SDS011;685;47.196;11.880;2023-05-16T07:40:07;6.30;;;5.70;;
1382;SDS011;685;47.196;11.880;2023-05-16T07:42:36;6.40;;;5.80;;
1382;SDS011;685;47.196;11.880;2023-05-16T07:45:04;6.43;;;5.83;;
1382;SDS011;685;47.196;11.880;2023-05-16T07:47:32;7.20;;;6.00;;
1382;SDS011;685;47.196;11.880;2023-05-16T07:49:59;7.50;;;6.80;;
1382;SDS011;685;47.196;11.880;2023-05-16T07:52:26;6.73;;;6.13;;
1382;SDS011;685;47.196;11.880;2023-05-16T07:54:53;6.67;;;5.87;;
1382;SDS011;685;47.196;11.880;2023-05-16T07:57:20;7.63;;;6.93;;
1382;SDS011;685;47.196;11.880;2023-05-16T07:59:48;6.77;;;6.07;;
1382;SDS011;685;47.196;11.880;2023-05-16T08:02:16;7.47;;;6.40;;
1382;SDS011;685;47.196;11.880;2023-05-16T08:04:44;37.93;;;27.70;;
1382;SDS011;685;47.196;11.880;2023-05-16T08:07:10;19.37;;;15.80;;
1382;SDS011;685;47.196;11.880;2023-05-16T08:09:37;7.37;;;6.67;;
1382;SDS011;685;47.196;11.880;2023-05-16T08:12:04;7.17;;;6.57;;
1382;SDS011;685;47.196;11.880;2023-05-16T08:14:32;6.80;;;6.00;;
1382;SDS011;685;47.196;11.880;2023-05-16T08:17:02;7.00;;;5.90;;
1382;SDS011;685;47.196;11.880;2023-05-16T08:19:29;8.17;;;7.47;;
1382;SDS011;685;47.196;11.880;2023-05-16T08:21:56;6.80;;;6.20;;
1382;SDS011;685;47.196;11.880;2023-05-16T08:24:24;6.50;;;5.90;;
1382;SDS011;685;47.196;11.880;2023-05-16T08:26:50;7.20;;;6.27;;
1382;SDS011;685;47.196;11.880;2023-05-16T08:29:17;6.70;;;6.10;;
1382;SDS011;685;47.196;11.880;2023-05-16T08:31:44;6.40;;;5.90;;
1382;SDS011;685;47.196;11.880;2023-05-16T08:34:13;6.77;;;6.03;;
1382;SDS011;685;47.196;11.880;2023-05-16T08:36:40;6.83;;;5.77;;
1382;SDS011;685;47.196;11.880;2023-05-16T08:39:07;6.30;;;5.80;;
1382;SDS011;685;47.196;11.880;2023-05-16T08:41:35;6.77;;;6.00;;
1382;SDS011;685;47.196;11.880;2023-05-16T08:44:02;7.60;;;6.90;;
1382;SDS011;685;47.196;11.880;2023-05-16T08:46:30;7.07;;;6.40;;
1382;SDS011;685;47.196;11.880;2023-05-16T08:48:59;6.80;;;6.10;;
1382;SDS011;685;47.196;11.880;2023-05-16T08:51:31;6.40;;;5.77;;
1382;SDS011;685;47.196;11.880;2023-05-16T08:54:02;6.50;;;5.80;;
1382;SDS011;685;47.196;11.880;2023-05-16T08:56:30;5.97;;;5.33;;
1382;SDS011;685;47.196;11.880;2023-05-16T08:58:59;6.47;;;5.87;;
1382;SDS011;685;47.196;11.880;2023-05-16T09:01:27;7.13;;;6.43;;
1382;SDS011;685;47.196;11.880;2023-05-16T09:03:55;6.13;;;5.53;;
1382;SDS011;685;47.196;11.880;2023-05-16T09:06:22;5.87;;;5.37;;
1382;SDS011;685;47.196;11.880;2023-05-16T09:08:51;7.57;;;6.20;;
1382;SDS011;685;47.196;11.880;2023-05-16T09:11:18;6.53;;;5.83;;
1382;SDS011;685;47.196;11.880;2023-05-16T09:13:46;6.60;;;6.00;;
1382;SDS011;685;47.196;11.880;2023-05-16T09:16:14;7.50;;;6.87;;
1382;SDS011;685;47.196;11.880;2023-05-16T09:18:42;8.23;;;7.43;;
1382;SDS011;685;47.196;11.880;2023-05-16T09:21:10;7.80;;;6.97;;
1382;SDS011;685;47.196;11.880;2023-05-16T09:23:37;7.17;;;6.53;;
1382;SDS011;685;47.196;11.880;2023-05-16T09:26:06;7.20;;;6.50;;
1382;SDS011;685;47.196;11.880;2023-05-16T09:28:33;8.40;;;7.60;;
1382;SDS011;685;47.196;11.880;2023-05-16T09:31:03;7.53;;;6.93;;
1382;SDS011;685;47.196;11.880;2023-05-16T09:33:44;11.03;;;9.40;;
1382;SDS011;685;47.196;11.880;2023-05-16T09:36:11;10.70;;;9.27;;
1382;SDS011;685;47.196;11.880;2023-05-16T09:38:39;9.43;;;8.43;;
1382;SDS011;685;47.196;11.880;2023-05-16T09:41:09;8.97;;;8.10;;
1382;SDS011;685;47.196;11.880;2023-05-16T09:43:37;9.80;;;8.33;;
1382;SDS011;685;47.196;11.880;2023-05-16T09:46:05;9.30;;;8.30;;
1382;SDS011;685;47.196;11.880;2023-05-16T09:48:32;10.10;;;8.23;;
1382;SDS011;685;47.196;11.880;2023-05-16T09:50:59;8.73;;;7.83;;
1382;SDS011;685;47.196;11.880;2023-05-16T09:53:30;8.43;;;7.60;;
1382;SDS011;685;47.196;11.880;2023-05-16T09:55:58;9.10;;;6.23;;
1382;SDS011;685;47.196;11.880;2023-05-16T09:58:30;6.40;;;5.80;;
1382;SDS011;685;47.196;11.880;2023-05-16T10:00:58;7.63;;;5.97;;
1382;SDS011;685;47.196;11.880;2023-05-16T10:03:26;6.90;;;6.20;;
1382;SDS011;685;47.196;11.880;2023-05-16T10:05:54;6.97;;;6.37;;
1382;SDS011;685;47.196;11.880;2023-05-16T10:08:22;7.17;;;6.20;;
1382;SDS011;685;47.196;11.880;2023-05-16T10:10:51;7.33;;;6.63;;
1382;SDS011;685;47.196;11.880;2023-05-16T10:13:19;7.30;;;6.60;;
1382;SDS011;685;47.196;11.880;2023-05-16T10:15:49;7.50;;;6.20;;
1382;SDS011;685;47.196;11.880;2023-05-16T10:18:17;7.73;;;7.03;;
1382;SDS011;685;47.196;11.880;2023-05-16T10:20:47;7.57;;;6.83;;
1382;SDS011;685;47.196;11.880;2023-05-16T10:23:17;7.50;;;6.83;;
1382;SDS011;685;47.196;11.880;2023-05-16T10:25:46;8.83;;;7.93;;
1382;SDS011;685;47.196;11.880;2023-05-16T10:28:14;8.63;;;7.73;;
1382;SDS011;685;47.196;11.880;2023-05-16T10:30:42;8.90;;;7.73;;
1382;SDS011;685;47.196;11.880;2023-05-16T10:33:12;10.10;;;7.97;;
1382;SDS011;685;47.196;11.880;2023-05-16T10:35:42;8.40;;;7.60;;
1382;SDS011;685;47.196;11.880;2023-05-16T10:38:10;7.70;;;7.00;;
1382;SDS011;685;47.196;11.880;2023-05-16T10:40:40;6.97;;;6.33;;
1382;SDS011;685;47.196;11.880;2023-05-16T10:43:07;7.63;;;6.90;;
1382;SDS011;685;47.196;11.880;2023-05-16T10:45:38;7.10;;;6.40;;
1382;SDS011;685;47.196;11.880;2023-05-16T10:48:07;7.30;;;6.13;;
1382;SDS011;685;47.196;11.880;2023-05-16T10:50:39;6.90;;;6.30;;
1382;SDS011;685;47.196;11.880;2023-05-16T10:53:11;7.20;;;6.53;;
1382;SDS011;685;47.196;11.880;2023-05-16T10:55:39;7.37;;;6.47;;
1382;SDS011;685;47.196;11.880;2023-05-16T10:58:10;8.20;;;7.30;;
1382;SDS011;685;47.196;11.880;2023-05-16T11:00:38;7.80;;;7.00;;
1382;SDS011;685;47.196;11.880;2023-05-16T11:03:05;7.83;;;7.20;;
1382;SDS011;685;47.196;11.880;2023-05-16T11:05:51;6.80;;;6.20;;
1382;SDS011;685;47.196;11.880;2023-05-16T11:08:18;6.30;;;5.70;;
1382;SDS011;685;47.196;11.880;2023-05-16T11:10:45;6.47;;;5.87;;
1382;SDS011;685;47.196;11.880;2023-05-16T11:13:12;7.50;;;6.80;;
1382;SDS011;685;47.196;11.880;2023-05-16T11:15:43;6.93;;;6.33;;
1382;SDS011;685;47.196;11.880;2023-05-16T11:18:13;8.33;;;7.53;;
1382;SDS011;685;47.196;11.880;2023-05-16T11:20:41;11.00;;;8.93;;
1382;SDS011;685;47.196;11.880;2023-05-16T11:23:19;8.33;;;7.53;;
1382;SDS011;685;47.196;11.880;2023-05-16T11:25:47;7.70;;;7.00;;
1382;SDS011;685;47.196;11.880;2023-05-16T11:28:18;8.93;;;8.03;;
1382;SDS011;685;47.196;11.880;2023-05-16T11:30:46;8.87;;;8.07;;
1382;SDS011;685;47.196;11.880;2023-05-16T11:33:14;8.57;;;7.77;;
1382;SDS011;685;47.196;11.880;2023-05-16T11:35:41;9.70;;;8.70;;
1382;SDS011;685;47.196;11.880;2023-05-16T11:38:11;8.60;;;7.80;;
1382;SDS011;685;47.196;11.880;2023-05-16T11:40:44;8.20;;;6.40;;
1382;SDS011;685;47.196;11.880;2023-05-16T11:43:16;5.73;;;5.23;;
1382;SDS011;685;47.196;11.880;2023-05-16T11:45:44;6.20;;;5.30;;
1382;SDS011;685;47.196;11.880;2023-05-16T11:48:11;4.50;;;4.10;;
1382;SDS011;685;47.196;11.880;2023-05-16T11:50:38;6.03;;;3.60;;
1382;SDS011;685;47.196;11.880;2023-05-16T11:53:05;3.53;;;3.20;;
1382;SDS011;685;47.196;11.880;2023-05-16T11:55:33;3.40;;;2.50;;
1382;SDS011;685;47.196;11.880;2023-05-16T11:58:02;4.87;;;2.10;;
1382;SDS011;685;47.196;11.880;2023-05-16T12:00:29;2.80;;;2.30;;
1382;SDS011;685;47.196;11.880;2023-05-16T12:02:59;2.10;;;1.90;;
1382;SDS011;685;47.196;11.880;2023-05-16T12:05:28;2.83;;;2.50;;
1382;SDS011;685;47.196;11.880;2023-05-16T12:07:56;8.57;;;6.03;;
1382;SDS011;685;47.196;11.880;2023-05-16T12:10:23;4.87;;;4.47;;
1382;SDS011;685;47.196;11.880;2023-05-16T12:12:52;10.63;;;6.17;;
1382;SDS011;685;47.196;11.880;2023-05-16T12:15:20;6.47;;;5.20;;
1382;SDS011;685;47.196;11.880;2023-05-16T12:17:48;7.50;;;6.37;;
1382;SDS011;685;47.196;11.880;2023-05-16T12:20:16;5.30;;;4.80;;
1382;SDS011;685;47.196;11.880;2023-05-16T12:22:44;4.50;;;4.10;;
1382;SDS011;685;47.196;11.880;2023-05-16T12:25:20;4.70;;;4.30;;
1382;SDS011;685;47.196;11.880;2023-05-16T12:27:51;5.50;;;5.00;;
1382;SDS011;685;47.196;11.880;2023-05-16T12:30:21;6.23;;;5.70;;
1382;SDS011;685;47.196;11.880;2023-05-16T12:32:54;6.33;;;5.73;;
1382;SDS011;685;47.196;11.880;2023-05-16T12:35:22;8.70;;;5.87;;
1382;SDS011;685;47.196;11.880;2023-05-16T12:37:49;6.33;;;5.37;;
1382;SDS011;685;47.196;11.880;2023-05-16T12:40:16;5.27;;;4.77;;
1382;SDS011;685;47.196;11.880;2023-05-16T12:42:44;5.07;;;4.57;;
1382;SDS011;685;47.196;11.880;2023-05-16T12:45:14;4.90;;;4.50;;
1382;SDS011;685;47.196;11.880;2023-05-16T12:47:43;5.20;;;4.70;;
1382;SDS011;685;47.196;11.880;2023-05-16T12:50:11;4.70;;;4.27;;
1382;SDS011;685;47.196;11.880;2023-05-16T12:52:46;4.93;;;4.43;;
1382;SDS011;685;47.196;11.880;2023-05-16T12:55:15;8.13;;;4.17;;
1382;SDS011;685;47.196;11.880;2023-05-16T12:57:42;4.40;;;3.63;;
1382;SDS011;685;47.196;11.880;2023-05-16T13:00:11;3.60;;;3.10;;
1382;SDS011;685;47.196;11.880;2023-05-16T13:02:40;2.90;;;2.60;;
1382;SDS011;685;47.196;11.880;2023-05-16T13:05:08;3.30;;;2.70;;
1382;SDS011;685;47.196;11.880;2023-05-16T13:07:35;3.30;;;3.00;;
1382;SDS011;685;47.196;11.880;2023-05-16T13:10:04;3.90;;;3.33;;
1382;SDS011;685;47.196;11.880;2023-05-16T13:12:34;5.43;;;4.43;;
1382;SDS011;685;47.196;11.880;2023-05-16T13:15:01;8.23;;;5.80;;
1382;SDS011;685;47.196;11.880;2023-05-16T13:17:29;6.10;;;5.00;;
1382;SDS011;685;47.196;11.880;2023-05-16T13:19:55;5.83;;;5.33;;
1382;SDS011;685;47.196;11.880;2023-05-16T13:22:24;4.90;;;4.47;;
1382;SDS011;685;47.196;11.880;2023-05-16T13:24:51;4.83;;;4.43;;
1382;SDS011;685;47.196;11.880;2023-05-16T13:27:18;6.80;;;5.37;;
1382;SDS011;685;47.196;11.880;2023-05-16T13:29:44;6.37;;;5.53;;
1382;SDS011;685;47.196;11.880;2023-05-16T13:32:11;7.67;;;6.10;;
1382;SDS011;685;47.196;11.880;2023-05-16T13:34:38;5.80;;;5.20;;
1382;SDS011;685;47.196;11.880;2023-05-16T13:37:05;5.20;;;4.70;;
1382;SDS011;685;47.196;11.880;2023-05-16T13:39:33;5.32;;;3.70;;
1382;SDS011;685;47.196;11.880;2023-05-16T13:42:00;4.13;;;3.73;;
1382;SDS011;685;47.196;11.880;2023-05-16T13:44:28;4.03;;;3.37;;
1382;SDS011;685;47.196;11.880;2023-05-16T13:46:55;3.73;;;3.33;;
1382;SDS011;685;47.196;11.880;2023-05-16T13:49:22;3.50;;;3.20;;
1382;SDS011;685;47.196;11.880;2023-05-16T13:51:49;4.13;;;3.50;;
1382;SDS011;685;47.196;11.880;2023-05-16T13:54:17;4.47;;;4.07;;
1382;SDS011;685;47.196;11.880;2023-05-16T13:56:45;4.10;;;3.70;;
1382;SDS011;685;47.196;11.880;2023-05-16T13:59:12;4.43;;;4.03;;
1382;SDS011;685;47.196;11.880;2023-05-16T14:01:39;5.47;;;3.83;;
1382;SDS011;685;47.196;11.880;2023-05-16T14:04:06;4.03;;;3.73;;
1382;SDS011;685;47.196;11.880;2023-05-16T14:06:33;4.07;;;3.70;;
1382;SDS011;685;47.196;11.880;2023-05-16T14:09:01;4.27;;;3.87;;
1382;SDS011;685;47.196;11.880;2023-05-16T14:11:28;5.87;;;4.10;;
1382;SDS011;685;47.196;11.880;2023-05-16T14:13:56;4.10;;;3.80;;
1382;SDS011;685;47.196;11.880;2023-05-16T14:16:24;6.03;;;5.27;;
1382;SDS011;685;47.196;11.880;2023-05-16T14:18:51;7.47;;;6.60;;
1382;SDS011;685;47.196;11.880;2023-05-16T14:21:18;6.87;;;6.20;;
1382;SDS011;685;47.196;11.880;2023-05-16T14:23:45;9.40;;;5.50;;
1382;SDS011;685;47.196;11.880;2023-05-16T14:26:12;5.27;;;3.93;;
1382;SDS011;685;47.196;11.880;2023-05-16T14:28:40;4.37;;;3.97;;
1382;SDS011;685;47.196;11.880;2023-05-16T14:31:08;5.37;;;4.87;;
1382;SDS011;685;47.196;11.880;2023-05-16T14:33:35;4.60;;;3.97;;
1382;SDS011;685;47.196;11.880;2023-05-16T14:36:02;5.37;;;4.87;;
1382;SDS011;685;47.196;11.880;2023-05-16T14:38:29;5.60;;;3.90;;
1382;SDS011;685;47.196;11.880;2023-05-16T14:40:56;4.77;;;4.37;;
1382;SDS011;685;47.196;11.880;2023-05-16T14:43:23;4.00;;;3.60;;
1382;SDS011;685;47.196;11.880;2023-05-16T14:45:50;7.47;;;3.90;;
1382;SDS011;685;47.196;11.880;2023-05-16T14:48:18;4.40;;;4.00;;
1382;SDS011;685;47.196;11.880;2023-05-16T14:50:45;5.03;;;4.53;;
1382;SDS011;685;47.196;11.880;2023-05-16T14:53:13;5.50;;;5.00;;
1382;SDS011;685;47.196;11.880;2023-05-16T14:55:40;4.83;;;4.30;;
1382;SDS011;685;47.196;11.880;2023-05-16T14:58:07;5.23;;;4.73;;
1382;SDS011;685;47.196;11.880;2023-05-16T15:00:33;6.43;;;5.80;;
1382;SDS011;685;47.196;11.880;2023-05-16T15:03:01;4.90;;;4.40;;
1382;SDS011;685;47.196;11.880;2023-05-16T15:05:29;7.13;;;6.37;;
1382;SDS011;685;47.196;11.880;2023-05-16T15:07:56;5.53;;;5.03;;
1382;SDS011;685;47.196;11.880;2023-05-16T15:10:23;4.40;;;4.00;;
1382;SDS011;685;47.196;11.880;2023-05-16T15:12:51;5.07;;;4.67;;
1382;SDS011;685;47.196;11.880;2023-05-16T15:15:18;3.93;;;3.63;;
1382;SDS011;685;47.196;11.880;2023-05-16T15:17:45;5.70;;;5.23;;
1382;SDS011;685;47.196;11.880;2023-05-16T15:20:13;5.13;;;4.63;;